Time;durP1;ratioP1;P1;durP2;ratioP2;P2;SDS_P1;SDS_P2;PMS_P1;PMS_P2;Temp;Humidity;BMP_temperature;BMP_pressure;BME280_temperature;BME280_humidity;BME280_pressure;Samples;Min_cycle;Max_cycle;Signal;HPM_P1;HPM_P2
2022/03/15 00:01:13;;;;;;;25.98;16.25;;;5.80;72.90;;;;;;4991367;28;20301;-80
2022/03/15 00:03:41;;;;;;;26.75;16.45;;;5.80;72.90;;;;;;4985964;28;20221;-80
2022/03/15 00:06:09;;;;;;;22.70;13.95;;;5.80;72.90;;;;;;5000322;28;20210;-79
2022/03/15 00:08:37;;;;;;;24.23;14.77;;;5.70;73.00;;;;;;4999041;28;20214;-81
2022/03/15 00:11:06;;;;;;;19.80;13.18;;;5.80;73.00;;;;;;4986320;28;20327;-80
2022/03/15 00:13:39;;;;;;;25.83;15.10;;;5.70;72.90;;;;;;4984935;28;20195;-80
2022/03/15 00:16:10;;;;;;;18.08;12.40;;;5.80;73.00;;;;;;5001236;28;20586;-80
2022/03/15 00:18:39;;;;;;;16.08;10.88;;;5.80;73.00;;;;;;4985342;28;20309;-80
2022/03/15 00:21:09;;;;;;;16.27;11.23;;;5.80;72.90;;;;;;4984855;28;20234;-80
2022/03/15 00:23:37;;;;;;;15.10;10.63;;;5.70;72.70;;;;;;4985568;28;20217;-79
2022/03/15 00:26:06;;;;;;;23.85;13.32;;;5.70;72.80;;;;;;4985167;28;20205;-78
2022/03/15 00:28:35;;;;;;;35.33;18.77;;;5.60;72.80;;;;;;4984469;28;20202;-78
2022/03/15 00:31:04;;;;;;;33.90;18.42;;;5.60;72.80;;;;;;4993573;28;20272;-78
2022/03/15 00:33:34;;;;;;;28.60;17.63;;;5.50;72.90;;;;;;4985540;28;20297;-80
2022/03/15 00:36:02;;;;;;;23.15;15.23;;;5.50;73.10;;;;;;4984451;28;20222;-79
2022/03/15 00:38:30;;;;;;;18.48;13.25;;;5.50;73.10;;;;;;4998511;28;20275;-79
2022/03/15 00:40:58;;;;;;;15.40;10.82;;;5.60;73.10;;;;;;4985917;28;20254;-78
2022/03/15 00:43:26;;;;;;;14.93;9.13;;;5.60;73.00;;;;;;4999552;28;20297;-79
2022/03/15 00:45:55;;;;;;;17.00;9.85;;;5.50;73.00;;;;;;4998566;28;20235;-80
2022/03/15 00:48:23;;;;;;;15.73;8.10;;;5.50;73.10;;;;;;4983145;28;20982;-80
2022/03/15 00:50:55;;;;;;;19.67;11.52;;;5.50;73.00;;;;;;4989407;28;20296;-80
2022/03/15 00:53:23;;;;;;;25.30;14.70;;;5.50;73.00;;;;;;5003365;28;20214;-79
2022/03/15 00:55:51;;;;;;;27.55;15.15;;;5.50;72.90;;;;;;5004333;28;20221;-80
2022/03/15 00:58:23;;;;;;;22.27;14.13;;;5.50;72.90;;;;;;5001342;28;20214;-80
2022/03/15 01:00:51;;;;;;;31.23;18.23;;;5.40;73.10;;;;;;5001385;28;20245;-81
2022/03/15 01:03:19;;;;;;;37.95;20.83;;;5.50;73.20;;;;;;4988310;28;20214;-80
2022/03/15 01:05:48;;;;;;;30.15;16.25;;;5.50;73.10;;;;;;5004614;28;20548;-80
2022/03/15 01:08:17;;;;;;;18.83;11.20;;;5.40;73.00;;;;;;4987683;28;20779;-80
2022/03/15 01:10:45;;;;;;;17.65;10.05;;;5.40;73.10;;;;;;4989220;28;20227;-79
2022/03/15 01:13:14;;;;;;;48.65;25.30;;;5.40;73.20;;;;;;4991080;28;20210;-79
2022/03/15 01:15:44;;;;;;;28.73;15.25;;;5.40;73.10;;;;;;4988966;28;20238;-79
2022/03/15 01:18:13;;;;;;;18.05;10.43;;;5.30;73.00;;;;;;4990820;28;20229;-79
2022/03/15 01:20:42;;;;;;;24.50;13.05;;;5.30;73.00;;;;;;4998935;28;20227;-79
2022/03/15 01:23:11;;;;;;;15.55;10.90;;;5.30;73.10;;;;;;5003047;28;20921;-80
2022/03/15 01:25:41;;;;;;;21.17;10.20;;;5.30;73.30;;;;;;4987869;28;20887;-80
2022/03/15 01:28:10;;;;;;;15.70;9.70;;;5.30;73.30;;;;;;4988490;28;20191;-79
2022/03/15 01:30:38;;;;;;;16.42;9.48;;;5.30;73.40;;;;;;5003077;28;20237;-80
2022/03/15 01:33:07;;;;;;;34.10;18.15;;;5.30;73.40;;;;;;4993289;28;20236;-80
2022/03/15 01:35:36;;;;;;;24.65;13.32;;;5.30;73.40;;;;;;5003693;28;20219;-80
2022/03/15 01:38:04;;;;;;;17.05;11.32;;;5.30;73.30;;;;;;4993040;28;20229;-80
2022/03/15 01:40:33;;;;;;;17.50;11.25;;;5.30;73.40;;;;;;4986667;28;20859;-80
2022/03/15 01:43:04;;;;;;;39.67;22.40;;;5.30;73.60;;;;;;4987370;28;20198;-81
2022/03/15 01:45:34;;;;;;;14.77;8.45;;;5.30;73.50;;;;;;4996489;28;20231;-82
2022/03/15 01:48:07;;;;;;;12.82;7.93;;;5.30;73.40;;;;;;4988143;28;20195;-81
2022/03/15 01:50:35;;;;;;;15.38;9.65;;;5.20;73.30;;;;;;5002669;28;20229;-80
2022/03/15 01:53:07;;;;;;;16.33;9.23;;;5.10;73.40;;;;;;5001617;28;20206;-81
2022/03/15 01:55:40;;;;;;;18.05;10.15;;;5.10;73.50;;;;;;5001641;28;20302;-81
2022/03/15 01:58:10;;;;;;;22.33;14.02;;;5.10;73.90;;;;;;4986052;28;20215;-81
2022/03/15 02:00:39;;;;;;;16.00;10.35;;;5.20;74.00;;;;;;4984880;28;20976;-79
2022/03/15 02:03:07;;;;;;;22.58;11.20;;;5.20;74.00;;;;;;4989207;28;20223;-80
2022/03/15 02:05:36;;;;;;;15.38;9.15;;;5.30;74.10;;;;;;4987592;28;20203;-79
2022/03/15 02:08:11;;;;;;;13.30;8.35;;;5.30;74.00;;;;;;4995834;28;20725;-79
2022/03/15 02:10:39;;;;;;;14.75;8.57;;;5.40;74.00;;;;;;4987639;28;20230;-79
2022/03/15 02:13:09;;;;;;;12.05;7.65;;;5.40;73.90;;;;;;4986846;28;20217;-80
2022/03/15 02:15:37;;;;;;;18.05;10.10;;;5.30;73.60;;;;;;4984158;28;20234;-80
2022/03/15 02:18:06;;;;;;;18.80;11.15;;;5.30;73.60;;;;;;4987432;28;20231;-80
2022/03/15 02:20:35;;;;;;;16.48;10.75;;;5.30;73.80;;;;;;4986276;28;20226;-80
2022/03/15 02:23:03;;;;;;;14.75;10.70;;;5.30;73.90;;;;;;4985970;28;20238;-79
2022/03/15 02:25:31;;;;;;;21.20;12.30;;;5.30;73.90;;;;;;5001914;28;20246;-80
2022/03/15 02:28:00;;;;;;;16.20;10.00;;;5.30;74.00;;;;;;4987070;28;20225;-80
2022/03/15 02:30:30;;;;;;;13.00;9.05;;;5.30;73.90;;;;;;4985001;28;20273;-80
2022/03/15 02:32:59;;;;;;;19.08;12.18;;;5.30;73.80;;;;;;4984409;28;20216;-81
2022/03/15 02:35:27;;;;;;;15.20;9.95;;;5.30;73.70;;;;;;5001234;28;20211;-80
2022/03/15 02:37:57;;;;;;;16.25;9.52;;;5.30;73.80;;;;;;4987031;28;20206;-79
2022/03/15 02:40:25;;;;;;;15.30;10.60;;;5.30;73.90;;;;;;4986286;28;20210;-80
2022/03/15 02:42:53;;;;;;;21.60;12.30;;;5.30;73.70;;;;;;4986583;28;20826;-80
2022/03/15 02:45:22;;;;;;;30.80;13.02;;;5.20;73.70;;;;;;4986311;28;20213;-79
2022/03/15 02:47:50;;;;;;;23.42;14.05;;;5.20;73.90;;;;;;4987498;28;20632;-79
2022/03/15 02:50:19;;;;;;;25.90;14.13;;;5.20;74.00;;;;;;4983591;28;20218;-78
2022/03/15 02:52:47;;;;;;;31.60;16.80;;;5.20;74.00;;;;;;4984653;28;20207;-80
2022/03/15 02:55:18;;;;;;;53.63;25.63;;;5.20;74.10;;;;;;4986707;28;20652;-79
2022/03/15 02:57:48;;;;;;;29.27;15.50;;;5.20;74.00;;;;;;5003021;28;20199;-80
2022/03/15 03:00:17;;;;;;;21.65;12.02;;;5.20;73.90;;;;;;4985175;28;20240;-79
2022/03/15 03:02:44;;;;;;;21.58;11.93;;;5.10;74.00;;;;;;4985142;28;20739;-80
2022/03/15 03:05:13;;;;;;;20.83;12.07;;;5.10;74.30;;;;;;4987611;28;20203;-80
2022/03/15 03:07:41;;;;;;;29.50;15.07;;;5.20;74.40;;;;;;4986032;28;20203;-80
2022/03/15 03:10:09;;;;;;;24.58;12.73;;;5.20;74.40;;;;;;5001295;28;20219;-79
2022/03/15 03:12:41;;;;;;;24.00;12.23;;;5.30;74.30;;;;;;4984584;28;20214;-79
2022/03/15 03:15:11;;;;;;;26.45;12.68;;;5.30;74.30;;;;;;4988960;28;20277;-80
2022/03/15 03:17:40;;;;;;;21.77;12.75;;;5.40;74.30;;;;;;4987221;28;20187;-81
2022/03/15 03:20:10;;;;;;;22.20;12.45;;;5.40;74.20;;;;;;4999109;28;20270;-79
2022/03/15 03:22:38;;;;;;;24.27;13.68;;;5.40;74.20;;;;;;4982637;28;20254;-78
2022/03/15 03:25:07;;;;;;;60.22;27.55;;;5.40;74.10;;;;;;4986874;28;20217;-77
2022/03/15 03:27:35;;;;;;;26.23;13.63;;;5.40;74.10;;;;;;5001440;28;20207;-79
2022/03/15 03:30:05;;;;;;;23.88;13.63;;;5.30;74.00;;;;;;4986536;28;20211;-80
2022/03/15 03:32:33;;;;;;;24.42;11.23;;;5.30;74.10;;;;;;4986070;28;20226;-79
2022/03/15 03:35:04;;;;;;;33.33;15.35;;;5.30;74.10;;;;;;4986829;28;20596;-80
2022/03/15 03:37:33;;;;;;;21.88;11.98;;;5.30;74.10;;;;;;4987941;28;20234;-80
2022/03/15 03:40:07;;;;;;;19.83;10.30;;;5.20;74.20;;;;;;4986396;28;20708;-79
2022/03/15 03:42:36;;;;;;;18.25;10.32;;;5.20;74.30;;;;;;4985957;28;20202;-80
2022/03/15 03:45:06;;;;;;;17.33;10.13;;;5.20;74.50;;;;;;5000614;28;20211;-80
2022/03/15 03:47:35;;;;;;;22.38;11.43;;;5.20;74.50;;;;;;4981673;28;20737;-80
2022/03/15 03:50:08;;;;;;;18.15;10.68;;;5.30;74.40;;;;;;4986266;28;20211;-80
2022/03/15 03:52:36;;;;;;;21.45;10.57;;;5.30;74.50;;;;;;4981895;28;20210;-80
2022/03/15 03:55:05;;;;;;;20.77;11.30;;;5.30;74.50;;;;;;4986100;28;20209;-80
2022/03/15 03:57:32;;;;;;;20.50;10.18;;;5.30;74.40;;;;;;4985014;28;20199;-80
2022/03/15 04:00:00;;;;;;;17.85;11.65;;;5.30;74.40;;;;;;5001516;28;20696;-81
2022/03/15 04:02:30;;;;;;;18.35;10.95;;;5.30;74.30;;;;;;4985741;28;20227;-81
2022/03/15 04:04:58;;;;;;;17.50;10.25;;;5.30;74.20;;;;;;4985694;28;20221;-79
2022/03/15 04:07:28;;;;;;;19.40;10.60;;;5.20;74.20;;;;;;4986139;28;20202;-79
2022/03/15 04:09:56;;;;;;;18.20;11.13;;;5.10;74.20;;;;;;4982679;28;20731;-77
2022/03/15 04:12:24;;;;;;;16.65;10.27;;;5.10;74.40;;;;;;4984831;28;20203;-77
2022/03/15 04:14:53;;;;;;;15.38;10.65;;;5.10;74.50;;;;;;4981612;28;20644;-78
2022/03/15 04:17:21;;;;;;;17.27;9.98;;;5.10;74.50;;;;;;4985138;28;20355;-77
2022/03/15 04:19:50;;;;;;;15.70;11.07;;;5.10;74.60;;;;;;4989077;28;20889;-80
2022/03/15 04:22:18;;;;;;;17.77;11.18;;;5.20;74.60;;;;;;4983905;28;20206;-81
2022/03/15 04:24:46;;;;;;;18.40;10.40;;;5.20;74.60;;;;;;5004073;28;20202;-79
2022/03/15 04:27:15;;;;;;;14.80;9.98;;;5.20;74.60;;;;;;4990169;28;20202;-77
2022/03/15 04:29:43;;;;;;;15.45;9.93;;;5.20;74.60;;;;;;5005576;28;20234;-79
2022/03/15 04:32:12;;;;;;;18.55;10.63;;;5.20;74.50;;;;;;5003934;28;20321;-79
2022/03/15 04:34:39;;;;;;;16.98;10.30;;;5.20;74.50;;;;;;4988425;28;20199;-79
2022/03/15 04:37:09;;;;;;;15.63;10.45;;;5.20;74.50;;;;;;4990240;28;20661;-79
2022/03/15 04:39:37;;;;;;;18.25;11.82;;;5.20;74.50;;;;;;4990198;28;20242;-80
2022/03/15 04:42:06;;;;;;;20.83;12.63;;;5.20;74.40;;;;;;5002455;28;20238;-79
2022/03/15 04:44:34;;;;;;;17.50;12.10;;;5.10;74.20;;;;;;5004389;28;20324;-79
2022/03/15 04:47:02;;;;;;;21.73;12.32;;;5.00;74.20;;;;;;4988161;28;20502;-79
2022/03/15 04:49:31;;;;;;;21.65;15.23;;;4.90;74.40;;;;;;4990286;28;20207;-80
2022/03/15 04:51:59;;;;;;;20.92;13.15;;;4.90;74.70;;;;;;4989563;28;20222;-80
2022/03/15 04:54:28;;;;;;;22.85;13.60;;;4.90;74.80;;;;;;4987385;28;20211;-80
2022/03/15 04:56:56;;;;;;;21.58;13.65;;;4.90;74.90;;;;;;4989986;28;20250;-80
2022/03/15 04:59:24;;;;;;;18.92;13.50;;;5.00;75.00;;;;;;5005066;28;20256;-78
2022/03/15 05:01:52;;;;;;;23.80;12.68;;;5.00;75.10;;;;;;4994598;28;20234;-81
2022/03/15 05:04:21;;;;;;;22.63;13.13;;;5.10;75.20;;;;;;4989404;28;20230;-81
2022/03/15 05:06:48;;;;;;;21.30;13.38;;;5.10;75.30;;;;;;4989769;28;20285;-80
2022/03/15 05:09:16;;;;;;;20.40;14.57;;;5.10;75.40;;;;;;4983835;28;20199;-82
2022/03/15 05:11:47;;;;;;;22.95;13.77;;;5.20;75.20;;;;;;5005971;28;20318;-79
2022/03/15 05:14:18;;;;;;;21.77;13.82;;;5.10;75.10;;;;;;4986255;28;20257;-79
2022/03/15 05:16:45;;;;;;;21.98;12.82;;;5.10;75.20;;;;;;4988158;28;20230;-78
2022/03/15 05:19:14;;;;;;;19.85;12.35;;;5.10;75.20;;;;;;4994039;28;20218;-79
2022/03/15 05:21:41;;;;;;;17.38;12.18;;;5.10;75.30;;;;;;4988594;28;20226;-79
2022/03/15 05:24:09;;;;;;;16.05;11.90;;;5.20;75.30;;;;;;4988715;28;20218;-79
2022/03/15 05:26:37;;;;;;;18.55;11.40;;;5.20;75.30;;;;;;4989526;28;21003;-79
2022/03/15 05:29:07;;;;;;;18.38;12.80;;;5.20;75.30;;;;;;5003191;28;20852;-80
2022/03/15 05:31:35;;;;;;;20.80;12.60;;;5.20;75.10;;;;;;4987905;28;20249;-80
2022/03/15 05:34:03;;;;;;;25.63;13.50;;;5.10;75.20;;;;;;4985861;28;20285;-80
2022/03/15 05:36:31;;;;;;;19.25;13.32;;;5.10;75.40;;;;;;4988540;28;20210;-79
2022/03/15 05:38:59;;;;;;;27.02;13.27;;;5.20;75.40;;;;;;4995587;28;20210;-81
2022/03/15 05:41:27;;;;;;;21.15;13.57;;;5.10;75.30;;;;;;4988042;28;20708;-79
2022/03/15 05:43:56;;;;;;;19.95;13.95;;;5.10;75.20;;;;;;4987975;28;20645;-80
2022/03/15 05:46:25;;;;;;;26.27;14.75;;;5.10;75.30;;;;;;4988114;28;20406;-82
2022/03/15 05:48:56;;;;;;;23.35;15.60;;;5.10;75.40;;;;;;5003050;28;20210;-82
2022/03/15 05:51:23;;;;;;;29.00;19.00;;;5.00;75.40;;;;;;4988004;28;20222;-81
2022/03/15 05:53:51;;;;;;;26.50;18.15;;;5.00;75.40;;;;;;4987460;28;20211;-82
2022/03/15 05:56:19;;;;;;;21.77;15.07;;;5.10;75.60;;;;;;5003928;28;20214;-82
2022/03/15 05:58:48;;;;;;;19.45;12.90;;;5.10;75.70;;;;;;4989322;28;20225;-81
2022/03/15 06:01:16;;;;;;;20.48;13.20;;;5.10;75.70;;;;;;4985683;28;20238;-82
2022/03/15 06:03:46;;;;;;;19.65;12.38;;;5.20;75.60;;;;;;4987409;28;20211;-82
2022/03/15 06:06:15;;;;;;;28.45;13.38;;;5.10;75.50;;;;;;4984806;28;20237;-82
2022/03/15 06:08:42;;;;;;;18.48;12.75;;;5.10;75.60;;;;;;5001388;28;20211;-81
2022/03/15 06:11:11;;;;;;;19.50;13.80;;;5.10;75.50;;;;;;4988351;28;20223;-82
2022/03/15 06:13:39;;;;;;;18.50;12.43;;;5.10;75.60;;;;;;4987984;28;20214;-82
2022/03/15 06:16:07;;;;;;;20.20;13.77;;;5.20;75.70;;;;;;4985933;28;20242;-82
2022/03/15 06:18:37;;;;;;;18.27;12.60;;;5.20;75.70;;;;;;5003159;28;20207;-81
2022/03/15 06:21:06;;;;;;;17.05;12.18;;;5.20;75.70;;;;;;4983646;28;20226;-82
2022/03/15 06:23:34;;;;;;;18.27;12.13;;;5.20;75.70;;;;;;4986302;28;20215;-82
2022/03/15 06:26:10;;;;;;;23.33;14.10;;;5.20;75.60;;;;;;4987277;28;20203;-81
2022/03/15 06:28:38;;;;;;;21.25;13.35;;;5.20;75.70;;;;;;4987192;28;20211;-82
2022/03/15 06:31:07;;;;;;;20.27;13.57;;;5.20;75.80;;;;;;4987414;28;20651;-81
2022/03/15 06:33:35;;;;;;;17.80;12.57;;;5.30;76.00;;;;;;4984881;28;20218;-81
2022/03/15 06:36:06;;;;;;;16.77;12.27;;;5.30;76.00;;;;;;4987832;28;20210;-82
2022/03/15 06:38:35;;;;;;;19.00;13.90;;;5.30;76.00;;;;;;4986562;28;20206;-82
2022/03/15 06:41:03;;;;;;;20.27;13.65;;;5.30;76.00;;;;;;5000860;28;20231;-81
2022/03/15 06:43:32;;;;;;;19.95;13.30;;;5.40;75.90;;;;;;4985526;28;20211;-81
2022/03/15 06:46:01;;;;;;;20.75;13.48;;;5.30;75.90;;;;;;4986871;28;20778;-81
2022/03/15 06:48:29;;;;;;;22.63;14.32;;;5.30;75.90;;;;;;4987262;28;20206;-81
2022/03/15 06:50:57;;;;;;;20.42;14.70;;;5.30;76.00;;;;;;5001693;28;20218;-80
2022/03/15 06:53:25;;;;;;;17.95;13.52;;;5.40;76.00;;;;;;4986107;28;20214;-81
2022/03/15 06:55:54;;;;;;;37.25;20.42;;;5.40;76.20;;;;;;4987612;28;20198;-81
2022/03/15 06:58:22;;;;;;;29.05;18.50;;;5.40;76.30;;;;;;4999932;28;20225;-81
2022/03/15 07:00:51;;;;;;;30.00;20.63;;;5.50;76.30;;;;;;4984268;28;20770;-81
2022/03/15 07:03:19;;;;;;;27.38;18.42;;;5.50;76.40;;;;;;4998946;28;20210;-81
2022/03/15 07:05:48;;;;;;;21.45;16.10;;;5.50;76.50;;;;;;4986982;28;20249;-82
2022/03/15 07:08:16;;;;;;;27.33;18.30;;;5.60;76.50;;;;;;4986550;28;20199;-80
2022/03/15 07:10:44;;;;;;;28.02;18.35;;;5.70;76.50;;;;;;4987524;28;20214;-81
2022/03/15 07:13:13;;;;;;;22.65;15.68;;;5.70;76.50;;;;;;4986861;28;20206;-82
2022/03/15 07:15:41;;;;;;;19.67;13.60;;;5.70;76.50;;;;;;4986863;28;20234;-82
2022/03/15 07:18:09;;;;;;;19.77;14.63;;;5.80;76.50;;;;;;5002593;28;20218;-82
2022/03/15 07:20:37;;;;;;;26.30;16.00;;;5.80;76.50;;;;;;4982929;28;20613;-82
2022/03/15 07:23:05;;;;;;;29.80;15.98;;;5.80;76.50;;;;;;5001006;28;20202;-80
2022/03/15 07:25:33;;;;;;;24.13;16.45;;;5.80;76.70;;;;;;5001468;28;20269;-83
2022/03/15 07:28:01;;;;;;;23.33;15.70;;;5.90;76.70;;;;;;5002605;28;20199;-84
2022/03/15 07:30:30;;;;;;;25.60;17.83;;;5.90;76.70;;;;;;4981836;28;20242;-85
2022/03/15 07:32:59;;;;;;;25.65;18.50;;;5.90;76.70;;;;;;4992570;28;20265;-85
2022/03/15 07:35:28;;;;;;;28.50;19.65;;;6.00;76.80;;;;;;4985928;28;20217;-85
2022/03/15 07:37:58;;;;;;;25.85;18.70;;;6.00;76.80;;;;;;4988406;28;20213;-85
2022/03/15 07:40:27;;;;;;;32.10;20.98;;;6.10;76.90;;;;;;4998612;28;20226;-84
2022/03/15 07:42:56;;;;;;;36.75;23.67;;;6.10;76.90;;;;;;4984081;28;20214;-85
2022/03/15 07:45:24;;;;;;;30.45;22.33;;;6.20;77.00;;;;;;4986591;28;20209;-85
2022/03/15 07:47:53;;;;;;;34.40;24.30;;;6.20;77.00;;;;;;4984841;28;20261;-85
2022/03/15 07:50:21;;;;;;;36.88;24.52;;;6.20;77.00;;;;;;4986252;28;20230;-83
2022/03/15 07:52:51;;;;;;;34.50;22.75;;;6.30;77.10;;;;;;4986494;28;20644;-85
2022/03/15 07:55:21;;;;;;;42.67;26.83;;;6.30;77.10;;;;;;5001474;28;20194;-84
2022/03/15 07:57:49;;;;;;;41.45;27.30;;;6.40;77.20;;;;;;5001663;28;20240;-86
2022/03/15 08:00:17;;;;;;;38.00;26.73;;;6.40;77.20;;;;;;4984822;28;20238;-84
2022/03/15 08:02:45;;;;;;;35.75;25.10;;;6.40;77.20;;;;;;5000096;28;20288;-84
2022/03/15 08:05:14;;;;;;;33.53;24.08;;;6.50;77.30;;;;;;4984970;28;20282;-85
2022/03/15 08:07:42;;;;;;;33.33;23.35;;;6.50;77.40;;;;;;4984394;28;20257;-84
2022/03/15 08:10:12;;;;;;;28.95;19.83;;;6.60;77.40;;;;;;4976526;28;20238;-85
2022/03/15 08:12:41;;;;;;;31.55;21.00;;;6.60;77.40;;;;;;5001183;28;20229;-85
2022/03/15 08:15:10;;;;;;;29.73;19.75;;;6.60;77.30;;;;;;4986425;28;20265;-85
2022/03/15 08:17:39;;;;;;;28.08;18.05;;;6.60;77.30;;;;;;4986252;28;20202;-84
2022/03/15 08:20:09;;;;;;;32.53;18.10;;;6.60;77.50;;;;;;4984830;28;20272;-84
2022/03/15 08:22:38;;;;;;;31.67;19.58;;;6.60;77.40;;;;;;5000594;28;20268;-85
2022/03/15 08:25:07;;;;;;;26.48;17.90;;;6.60;77.60;;;;;;4988608;28;20210;-85
2022/03/15 08:27:35;;;;;;;24.90;17.33;;;6.60;77.50;;;;;;4985369;28;20644;-85
2022/03/15 08:30:04;;;;;;;25.30;17.58;;;6.60;77.80;;;;;;5001496;28;20212;-85
2022/03/15 08:32:32;;;;;;;27.75;18.08;;;6.60;77.70;;;;;;4986563;28;20821;-84
2022/03/15 08:35:00;;;;;;;29.45;19.55;;;6.60;77.80;;;;;;4990078;28;20202;-84
2022/03/15 08:37:28;;;;;;;24.17;17.17;;;6.70;78.00;;;;;;5000270;28;20202;-84
2022/03/15 08:39:58;;;;;;;35.60;25.23;;;6.70;78.10;;;;;;4986485;28;20207;-85
2022/03/15 08:42:26;;;;;;;27.00;19.77;;;6.70;78.10;;;;;;4982871;28;20691;-84
2022/03/15 08:44:54;;;;;;;29.75;20.77;;;6.80;78.30;;;;;;4986029;28;20725;-85
2022/03/15 08:47:22;;;;;;;40.13;22.00;;;6.90;78.20;;;;;;5000060;28;20230;-84
2022/03/15 08:49:50;;;;;;;61.58;28.60;;;6.90;78.30;;;;;;4991025;28;20203;-84
2022/03/15 08:52:18;;;;;;;45.97;23.05;;;6.90;78.30;;;;;;4983110;28;20682;-84
2022/03/15 08:54:46;;;;;;;34.28;17.90;;;7.00;78.40;;;;;;5000193;28;20207;-83
2022/03/15 08:57:17;;;;;;;42.75;19.83;;;7.00;78.40;;;;;;4984801;28;20211;-83
2022/03/15 08:59:45;;;;;;;40.33;21.58;;;7.10;78.40;;;;;;4988816;28;20214;-83
2022/03/15 09:02:14;;;;;;;39.67;21.70;;;7.20;78.50;;;;;;4996848;28;20238;-83
2022/03/15 09:04:42;;;;;;;41.30;22.17;;;7.30;78.50;;;;;;4983008;28;20217;-82
2022/03/15 09:07:10;;;;;;;40.13;21.20;;;7.40;78.60;;;;;;4985708;28;20519;-83
2022/03/15 09:09:38;;;;;;;27.67;16.33;;;7.40;78.50;;;;;;4984307;28;20373;-83
2022/03/15 09:12:07;;;;;;;28.20;15.95;;;7.60;78.40;;;;;;5002900;28;20292;-84
2022/03/15 09:14:37;;;;;;;93.50;36.23;;;7.60;78.50;;;;;;4988733;28;20199;-83
2022/03/15 09:17:06;;;;;;;25.95;15.55;;;7.70;78.40;;;;;;4988771;28;20470;-83
2022/03/15 09:19:35;;;;;;;28.92;15.85;;;7.70;78.20;;;;;;4990499;28;20203;-82
2022/03/15 09:22:04;;;;;;;31.23;17.03;;;7.80;78.20;;;;;;5003375;28;20230;-83
2022/03/15 09:24:33;;;;;;;25.67;17.00;;;7.80;78.10;;;;;;4986240;28;20516;-83
2022/03/15 09:27:01;;;;;;;25.20;14.70;;;7.80;78.20;;;;;;5004834;28;20446;-83
2022/03/15 09:29:29;;;;;;;18.52;13.05;;;7.90;78.10;;;;;;4987847;28;20450;-81
2022/03/15 09:31:59;;;;;;;23.20;14.60;;;7.90;78.20;;;;;;4989159;28;20242;-83
2022/03/15 09:34:28;;;;;;;19.75;13.13;;;7.90;78.10;;;;;;5003068;28;20812;-83
2022/03/15 09:36:56;;;;;;;17.47;10.13;;;8.00;78.10;;;;;;4988150;28;20688;-81
2022/03/15 09:39:24;;;;;;;17.05;12.00;;;8.00;78.00;;;;;;5004088;28;20472;-83
2022/03/15 09:41:55;;;;;;;25.40;14.77;;;8.10;77.90;;;;;;5003717;28;20272;-84
2022/03/15 09:44:28;;;;;;;20.27;13.10;;;8.10;78.00;;;;;;4987960;28;20211;-82
2022/03/15 09:47:01;;;;;;;14.57;10.75;;;8.10;78.00;;;;;;5001031;28;20532;-81
2022/03/15 09:49:30;;;;;;;15.20;11.20;;;8.10;77.90;;;;;;4988545;28;20223;-82
2022/03/15 09:52:00;;;;;;;16.13;10.43;;;8.20;77.90;;;;;;5003553;28;20474;-83
2022/03/15 09:54:29;;;;;;;18.77;11.97;;;8.20;77.90;;;;;;4987722;28;20910;-83
2022/03/15 09:56:58;;;;;;;21.17;13.30;;;8.20;77.90;;;;;;4988811;28;20469;-83
2022/03/15 09:59:28;;;;;;;32.77;17.87;;;8.30;78.00;;;;;;4987455;28;20450;-83
2022/03/15 10:01:59;;;;;;;20.23;11.30;;;8.30;78.00;;;;;;4986953;28;20485;-83
2022/03/15 10:04:29;;;;;;;16.47;11.37;;;8.40;78.00;;;;;;4985654;28;20465;-83
2022/03/15 10:06:57;;;;;;;17.30;11.50;;;8.40;77.90;;;;;;5000885;28;20454;-82
2022/03/15 10:09:26;;;;;;;15.53;10.00;;;8.50;77.90;;;;;;4988887;28;20445;-83
2022/03/15 10:11:55;;;;;;;16.00;11.00;;;8.50;77.90;;;;;;4997313;28;20524;-83
2022/03/15 10:14:23;;;;;;;16.80;11.20;;;8.60;77.80;;;;;;4985020;28;20454;-83
2022/03/15 10:16:51;;;;;;;17.23;11.20;;;8.60;77.80;;;;;;4987944;28;20473;-83
2022/03/15 10:19:21;;;;;;;19.40;11.47;;;8.70;77.70;;;;;;4985504;28;21049;-83
2022/03/15 10:21:51;;;;;;;24.30;13.70;;;8.70;77.70;;;;;;4994625;28;20481;-83
2022/03/15 10:24:22;;;;;;;16.80;10.63;;;8.80;77.60;;;;;;4988706;28;20478;-83
2022/03/15 10:26:51;;;;;;;21.67;12.53;;;8.90;77.60;;;;;;4986483;28;20462;-82
2022/03/15 10:29:20;;;;;;;28.10;16.07;;;8.90;77.60;;;;;;4989066;28;20935;-83
2022/03/15 10:31:49;;;;;;;19.40;10.60;;;9.00;77.50;;;;;;5001907;28;20556;-82
2022/03/15 10:34:18;;;;;;;22.73;12.03;;;9.00;77.50;;;;;;5003499;28;20466;-82
2022/03/15 10:36:49;;;;;;;28.50;14.70;;;9.00;77.30;;;;;;4989277;28;20461;-82
2022/03/15 10:39:20;;;;;;;15.90;10.03;;;9.10;77.20;;;;;;4988433;28;20671;-82
2022/03/15 10:41:52;;;;;;;13.57;9.70;;;9.10;77.20;;;;;;4987547;28;20492;-82
2022/03/15 10:44:23;;;;;;;18.90;9.43;;;9.20;77.10;;;;;;4985292;28;20477;-82
2022/03/15 10:47:00;;;;;;;17.60;10.83;;;9.20;77.00;;;;;;4985672;28;20525;-82
2022/03/15 10:49:29;;;;;;;17.63;11.03;;;9.30;77.00;;;;;;4987485;28;20452;-82
2022/03/15 10:51:59;;;;;;;17.27;10.27;;;9.30;76.90;;;;;;4988545;28;21221;-82
2022/03/15 10:54:28;;;;;;;16.00;10.43;;;9.40;76.90;;;;;;5002675;28;20547;-84
2022/03/15 10:56:59;;;;;;;16.37;10.03;;;9.40;76.90;;;;;;4988679;28;20453;-82
2022/03/15 10:59:28;;;;;;;19.00;12.30;;;9.50;76.80;;;;;;4986467;28;20511;-82
2022/03/15 11:01:57;;;;;;;19.73;12.10;;;9.60;76.40;;;;;;4987872;28;20589;-82
2022/03/15 11:04:25;;;;;;;16.17;11.33;;;9.60;76.30;;;;;;4985928;28;20474;-83
2022/03/15 11:06:55;;;;;;;16.07;11.87;;;9.70;76.30;;;;;;4987578;28;20457;-84
2022/03/15 11:09:38;;;;;;;15.73;11.33;;;9.60;76.10;;;;;;5002972;28;20476;-83
2022/03/15 11:12:09;;;;;;;17.93;11.97;;;9.60;76.20;;;;;;4988041;28;20531;-83
2022/03/15 11:14:46;;;;;;;22.10;12.33;;;9.50;76.20;;;;;;4985518;28;20520;-83
2022/03/15 11:17:24;;;;;;;18.40;11.50;;;9.50;76.30;;;;;;4996616;28;20481;-83
2022/03/15 11:19:54;;;;;;;16.77;11.43;;;9.40;76.60;;;;;;4992436;28;21156;-83
2022/03/15 11:22:34;;;;;;;22.33;12.80;;;9.40;76.60;;;;;;4982895;28;20524;-83
2022/03/15 11:25:06;;;;;;;17.30;12.50;;;9.40;76.60;;;;;;4985072;28;20464;-83
2022/03/15 11:27:36;;;;;;;17.50;11.80;;;9.50;76.60;;;;;;4986422;28;20469;-83
2022/03/15 11:30:06;;;;;;;21.20;12.20;;;9.50;76.60;;;;;;4985673;28;20445;-82
2022/03/15 11:32:35;;;;;;;20.40;12.23;;;9.60;76.60;;;;;;5000590;28;20469;-83
2022/03/15 11:35:04;;;;;;;15.27;10.93;;;9.60;76.40;;;;;;4983922;28;20465;-83
2022/03/15 11:37:32;;;;;;;17.37;11.37;;;9.60;76.40;;;;;;5002484;28;20462;-83
2022/03/15 11:40:04;;;;;;;16.93;12.00;;;9.60;76.40;;;;;;4985343;28;20469;-84
2022/03/15 11:42:34;;;;;;;19.30;13.17;;;9.70;76.60;;;;;;4985188;28;20462;-82
2022/03/15 11:45:09;;;;;;;17.93;12.10;;;9.70;76.70;;;;;;4985623;28;21257;-83
2022/03/15 11:48:02;;;;;;;18.17;12.27;;;9.70;76.60;;;;;;5001537;28;20462;-83
2022/03/15 11:50:38;;;;;;;16.50;12.10;;;9.80;76.60;;;;;;4985552;28;20477;-82
2022/03/15 11:53:13;;;;;;;17.20;11.90;;;9.80;76.60;;;;;;4999138;28;20453;-83
2022/03/15 11:55:49;;;;;;;18.03;12.40;;;9.80;76.50;;;;;;4986809;28;20487;-84
2022/03/15 11:58:28;;;;;;;22.47;11.80;;;9.80;76.40;;;;;;4986510;28;21083;-82
2022/03/15 12:01:09;;;;;;;21.13;12.50;;;9.80;76.40;;;;;;4998513;28;20864;-84
2022/03/15 12:03:51;;;;;;;15.37;11.63;;;9.80;76.40;;;;;;4997193;28;20487;-83
2022/03/15 12:06:23;;;;;;;18.07;12.07;;;9.90;76.30;;;;;;4999668;28;20531;-83
2022/03/15 12:08:53;;;;;;;16.97;11.40;;;9.80;76.30;;;;;;5001194;28;20459;-82
2022/03/15 12:11:32;;;;;;;16.80;11.83;;;9.80;76.30;;;;;;4979767;28;20478;-83
2022/03/15 12:14:08;;;;;;;17.57;13.20;;;9.80;76.30;;;;;;4986484;28;20461;-83
2022/03/15 12:16:41;;;;;;;18.70;11.77;;;9.80;76.20;;;;;;4982390;28;20481;-83
2022/03/15 12:19:35;;;;;;;18.50;12.80;;;9.80;76.20;;;;;;4986662;28;20500;-83
2022/03/15 12:22:08;;;;;;;19.43;12.97;;;9.80;76.20;;;;;;4998647;28;20488;-83
2022/03/15 12:24:38;;;;;;;17.67;12.80;;;9.80;76.20;;;;;;4983179;28;20470;-83
2022/03/15 12:27:18;;;;;;;17.70;12.40;;;9.80;76.20;;;;;;4986212;28;20529;-82
2022/03/15 12:29:52;;;;;;;22.20;12.00;;;9.80;76.20;;;;;;4983173;28;20449;-83
2022/03/15 12:32:20;;;;;;;32.10;16.93;;;9.80;76.20;;;;;;4985096;28;20486;-84
2022/03/15 12:34:55;;;;;;;36.30;19.80;;;9.70;76.20;;;;;;4985460;28;20450;-85
2022/03/15 12:37:30;;;;;;;33.83;19.67;;;9.70;76.20;;;;;;4996967;28;20468;-83
2022/03/15 12:40:00;;;;;;;31.30;18.23;;;9.70;76.20;;;;;;4986506;28;20499;-84
2022/03/15 12:42:29;;;;;;;77.50;34.20;;;9.70;76.30;;;;;;5001440;28;21078;-85
2022/03/15 12:45:02;;;;;;;66.77;33.50;;;9.70;76.30;;;;;;5001703;28;20477;-84
2022/03/15 12:47:32;;;;;;;44.40;23.83;;;9.70;76.30;;;;;;5004283;28;20475;-84
2022/03/15 12:50:10;;;;;;;22.67;15.20;;;9.80;76.30;;;;;;5002641;28;21118;-84